Time;durP1;ratioP1;P1;durP2;ratioP2;P2;SDS_P1;SDS_P2;PMS_P1;PMS_P2;Temp;Humidity;BMP_temperature;BMP_pressure;BME280_temperature;BME280_humidity;BME280_pressure;Samples;Min_cycle;Max_cycle;Signal;HPM_P1;HPM_P2
2021/01/09 00:02:34;;;;;;;22.80;16.50;;;1.10;99.90;;;;;;6249011;28;20562;-63
2021/01/09 00:05:36;;;;;;;21.23;17.07;;;1.10;99.90;;;;;;6249088;28;20446;-62
2021/01/09 00:08:40;;;;;;;30.40;18.87;;;1.10;99.90;;;;;;6248443;28;20502;-62
2021/01/09 00:11:42;;;;;;;24.77;17.40;;;1.00;99.90;;;;;;6248978;28;20478;-63
2021/01/09 00:14:44;;;;;;;31.37;24.97;;;1.10;99.90;;;;;;6255231;28;20480;-62
2021/01/09 00:17:47;;;;;;;21.73;18.33;;;1.00;99.90;;;;;;6273854;28;21441;-62
2021/01/09 00:20:49;;;;;;;24.90;17.50;;;0.90;99.90;;;;;;6273431;28;20489;-62
2021/01/09 00:23:52;;;;;;;25.83;15.87;;;0.90;99.90;;;;;;6276372;28;20461;-61
2021/01/09 00:26:55;;;;;;;22.23;17.37;;;0.90;99.90;;;;;;6277719;28;20465;-62
2021/01/09 00:29:57;;;;;;;24.97;17.80;;;0.90;99.90;;;;;;6277518;28;20478;-61
2021/01/09 00:32:59;;;;;;;24.23;17.13;;;0.90;99.90;;;;;;6258591;28;20799;-63
2021/01/09 00:36:01;;;;;;;21.57;15.37;;;0.90;99.90;;;;;;6277324;28;20797;-61
2021/01/09 00:39:05;;;;;;;21.23;16.40;;;1.00;99.90;;;;;;6277325;28;20966;-61
2021/01/09 00:42:07;;;;;;;22.40;15.37;;;0.90;99.90;;;;;;6286392;28;20980;-61
2021/01/09 00:45:10;;;;;;;20.63;16.07;;;0.90;99.90;;;;;;6302299;28;20479;-62
2021/01/09 00:48:13;;;;;;;20.57;16.40;;;0.90;99.90;;;;;;6300580;28;20475;-63
2021/01/09 00:51:16;;;;;;;24.60;16.07;;;0.90;99.90;;;;;;6277297;28;20462;-64
2021/01/09 00:54:19;;;;;;;23.57;17.87;;;1.00;99.90;;;;;;6277416;28;20477;-61
2021/01/09 00:57:21;;;;;;;23.77;19.93;;;1.00;99.90;;;;;;6284160;28;20573;-62
2021/01/09 01:00:23;;;;;;;21.50;18.40;;;1.00;99.90;;;;;;6289093;28;20470;-62
2021/01/09 01:03:27;;;;;;;17.60;15.80;;;1.00;99.90;;;;;;6300099;28;20473;-63
2021/01/09 01:06:29;;;;;;;21.80;16.60;;;1.00;99.90;;;;;;6299580;28;20496;-64
2021/01/09 01:09:35;;;;;;;21.57;16.63;;;1.00;99.90;;;;;;6274653;28;20477;-61
2021/01/09 01:12:37;;;;;;;23.37;16.60;;;1.00;99.90;;;;;;6273974;28;20474;-61
2021/01/09 01:15:39;;;;;;;25.77;17.50;;;1.00;99.90;;;;;;6273718;28;20470;-61
2021/01/09 01:18:42;;;;;;;23.13;16.87;;;0.90;99.90;;;;;;6275335;28;20466;-61
2021/01/09 01:21:44;;;;;;;25.87;15.93;;;0.90;99.90;;;;;;6275606;28;20479;-61
2021/01/09 01:24:47;;;;;;;20.83;15.70;;;0.90;99.90;;;;;;6275485;28;20473;-61
2021/01/09 01:27:50;;;;;;;16.87;14.90;;;0.90;99.90;;;;;;6275772;28;20581;-61
2021/01/09 01:30:52;;;;;;;24.90;16.10;;;0.80;99.90;;;;;;6276459;28;20474;-62
2021/01/09 01:33:55;;;;;;;17.67;14.90;;;0.80;99.90;;;;;;6276129;28;20481;-62
2021/01/09 01:36:57;;;;;;;20.30;13.87;;;0.70;99.90;;;;;;6276047;28;20479;-62
2021/01/09 01:40:00;;;;;;;22.20;17.07;;;0.80;99.90;;;;;;6276090;28;20481;-63
2021/01/09 01:43:09;;;;;;;19.20;14.57;;;0.80;99.90;;;;;;6291393;28;20522;-62
2021/01/09 01:46:11;;;;;;;18.90;14.40;;;0.80;99.90;;;;;;6300882;28;20568;-61
2021/01/09 01:49:16;;;;;;;19.43;15.07;;;0.80;99.90;;;;;;6296206;28;20814;-61
2021/01/09 01:52:19;;;;;;;18.47;15.77;;;0.80;99.90;;;;;;6300280;28;20480;-61
2021/01/09 01:55:22;;;;;;;17.27;15.43;;;0.70;99.90;;;;;;6300291;28;20535;-59
2021/01/09 01:58:25;;;;;;;21.70;15.50;;;0.70;99.90;;;;;;6300018;28;20536;-59
2021/01/09 02:01:27;;;;;;;20.37;15.13;;;0.70;99.90;;;;;;6300219;28;20496;-59
2021/01/09 02:04:30;;;;;;;17.00;13.67;;;0.70;99.90;;;;;;6298855;28;20472;-59
2021/01/09 02:07:38;;;;;;;18.10;14.40;;;0.70;99.90;;;;;;6298100;28;20479;-59
2021/01/09 02:10:46;;;;;;;14.90;12.03;;;0.60;99.90;;;;;;6298139;28;20473;-61
2021/01/09 02:13:53;;;;;;;17.27;13.73;;;0.60;99.90;;;;;;6297724;28;20473;-60
2021/01/09 02:16:56;;;;;;;15.67;12.63;;;0.60;99.90;;;;;;6297845;28;21020;-59
2021/01/09 02:20:00;;;;;;;17.60;12.90;;;0.60;99.90;;;;;;6299420;28;20484;-59
2021/01/09 02:23:03;;;;;;;17.97;13.60;;;0.50;99.90;;;;;;6300470;28;20466;-59
2021/01/09 02:26:06;;;;;;;23.27;15.23;;;0.50;99.90;;;;;;6301251;28;20461;-59
2021/01/09 02:29:10;;;;;;;21.20;14.17;;;0.50;99.90;;;;;;6300524;28;20488;-59
2021/01/09 02:32:17;;;;;;;22.03;15.03;;;0.40;99.90;;;;;;6300443;28;20477;-59
2021/01/09 02:35:22;;;;;;;16.17;13.20;;;0.40;99.90;;;;;;6300906;28;20485;-60
2021/01/09 02:38:25;;;;;;;22.67;16.23;;;0.50;99.90;;;;;;6300225;28;20442;-60
2021/01/09 02:41:29;;;;;;;23.93;17.10;;;0.50;99.90;;;;;;6300119;28;20472;-60
2021/01/09 02:44:32;;;;;;;26.87;18.20;;;0.40;99.90;;;;;;6299899;28;20909;-59
2021/01/09 02:47:34;;;;;;;24.37;19.23;;;0.30;99.90;;;;;;6299449;28;20901;-59
2021/01/09 02:50:37;;;;;;;28.20;21.17;;;0.30;99.90;;;;;;6299765;28;20971;-59
2021/01/09 02:53:40;;;;;;;27.63;20.30;;;0.10;99.90;;;;;;6299841;28;20440;-60
2021/01/09 02:56:42;;;;;;;23.60;19.00;;;0.00;99.90;;;;;;6299906;28;20481;-60
2021/01/09 02:59:44;;;;;;;22.53;19.03;;;-0.10;99.90;;;;;;6300258;28;20457;-60
2021/01/09 03:02:46;;;;;;;30.80;21.37;;;-0.20;99.90;;;;;;6299922;28;20461;-60
2021/01/09 03:05:48;;;;;;;26.83;21.03;;;-0.30;99.90;;;;;;6299998;28;20465;-60
2021/01/09 03:08:53;;;;;;;23.20;18.50;;;-0.20;99.90;;;;;;6299808;28;20465;-60
2021/01/09 03:11:55;;;;;;;20.97;17.93;;;-0.30;99.90;;;;;;6299718;28;20473;-60
2021/01/09 03:14:57;;;;;;;24.30;19.53;;;-0.50;99.90;;;;;;6299521;28;20485;-60
2021/01/09 03:17:59;;;;;;;23.80;17.77;;;-0.60;99.90;;;;;;6299610;28;20484;-60
2021/01/09 03:21:02;;;;;;;21.93;18.23;;;-0.60;99.90;;;;;;6299986;28;20473;-60
2021/01/09 03:24:06;;;;;;;23.87;18.30;;;-0.70;99.90;;;;;;6300110;28;20484;-61
2021/01/09 03:27:08;;;;;;;22.27;18.90;;;-0.70;99.90;;;;;;6299795;28;20476;-60
2021/01/09 03:30:11;;;;;;;24.50;18.10;;;-0.80;99.90;;;;;;6299151;28;20473;-60
2021/01/09 03:33:15;;;;;;;20.83;17.33;;;-0.80;99.90;;;;;;6299425;28;20871;-60
2021/01/09 03:36:17;;;;;;;25.53;19.77;;;-0.80;99.90;;;;;;6299387;28;20980;-60
2021/01/09 03:39:20;;;;;;;21.23;18.67;;;-0.90;99.90;;;;;;6299530;28;20805;-60
2021/01/09 03:42:22;;;;;;;22.97;18.07;;;-1.00;99.90;;;;;;6299503;28;20474;-60
2021/01/09 03:45:24;;;;;;;18.83;16.83;;;-1.10;99.90;;;;;;6299929;28;20464;-60
2021/01/09 03:48:26;;;;;;;18.37;16.47;;;-1.10;99.90;;;;;;6299423;28;20566;-60
2021/01/09 03:51:29;;;;;;;20.40;16.57;;;-1.20;99.90;;;;;;6299327;28;20485;-61
2021/01/09 03:54:32;;;;;;;20.00;17.10;;;-1.20;99.90;;;;;;6295008;28;20480;-62
2021/01/09 03:57:34;;;;;;;18.90;15.97;;;-1.30;99.90;;;;;;6300114;28;20473;-60
2021/01/09 04:00:36;;;;;;;18.37;16.47;;;-1.20;99.90;;;;;;6303919;28;20468;-60
2021/01/09 04:03:38;;;;;;;20.40;17.73;;;-1.20;99.90;;;;;;6304156;28;20469;-60
2021/01/09 04:06:40;;;;;;;18.53;16.50;;;-1.30;99.90;;;;;;6303832;28;20469;-60
2021/01/09 04:09:43;;;;;;;20.13;15.37;;;-1.20;99.90;;;;;;6303532;28;20532;-60
2021/01/09 04:12:45;;;;;;;18.53;15.50;;;-1.30;99.90;;;;;;6303737;28;20465;-60
2021/01/09 04:15:48;;;;;;;19.87;16.93;;;-1.30;99.90;;;;;;6303561;28;20484;-60
2021/01/09 04:18:50;;;;;;;20.50;15.80;;;-1.40;99.90;;;;;;6303132;28;20808;-61
2021/01/09 04:21:53;;;;;;;18.47;15.90;;;-1.40;99.90;;;;;;6303445;28;20484;-60
2021/01/09 04:24:56;;;;;;;21.43;17.90;;;-1.30;99.90;;;;;;6303605;28;20480;-61
2021/01/09 04:27:58;;;;;;;21.70;16.57;;;-1.40;99.90;;;;;;6303182;28;20473;-60
2021/01/09 04:31:02;;;;;;;19.23;16.97;;;-1.30;99.90;;;;;;6303335;28;20476;-60
2021/01/09 04:34:05;;;;;;;22.70;17.50;;;-1.30;99.90;;;;;;6303118;28;20469;-60
2021/01/09 04:37:07;;;;;;;24.37;17.83;;;-1.30;99.90;;;;;;6303361;28;20488;-60
2021/01/09 04:40:11;;;;;;;21.00;16.40;;;-1.20;99.90;;;;;;6302863;28;20509;-60
2021/01/09 04:43:13;;;;;;;27.17;18.40;;;-1.20;99.90;;;;;;6302782;28;20478;-60
2021/01/09 04:46:17;;;;;;;32.03;17.27;;;-1.20;99.90;;;;;;6303890;28;20957;-60
2021/01/09 04:49:21;;;;;;;20.87;15.70;;;-1.10;99.90;;;;;;6302887;28;21000;-61
2021/01/09 04:52:23;;;;;;;19.13;14.20;;;-1.10;99.90;;;;;;6302404;28;20477;-60
2021/01/09 04:55:28;;;;;;;18.77;13.47;;;-1.10;99.90;;;;;;6302697;28;20496;-61
2021/01/09 04:58:33;;;;;;;21.00;13.60;;;-1.00;99.90;;;;;;6302657;28;20473;-60
2021/01/09 05:01:36;;;;;;;22.43;13.80;;;-0.90;99.90;;;;;;6293542;28;20469;-60
2021/01/09 05:04:44;;;;;;;20.20;13.83;;;-0.90;99.90;;;;;;6302469;28;20482;-60
2021/01/09 05:07:46;;;;;;;18.73;13.27;;;-0.90;99.90;;;;;;6302386;28;20469;-60
2021/01/09 05:10:51;;;;;;;21.70;15.30;;;-0.90;99.90;;;;;;6302200;28;20493;-60
2021/01/09 05:13:54;;;;;;;13.63;11.07;;;-0.90;99.90;;;;;;6302180;28;20842;-60
2021/01/09 05:16:58;;;;;;;19.83;13.80;;;-0.80;99.90;;;;;;6301928;28;20481;-60
2021/01/09 05:20:04;;;;;;;14.20;12.40;;;-0.80;99.90;;;;;;6302834;28;20548;-61
2021/01/09 05:23:06;;;;;;;17.80;14.60;;;-0.80;99.90;;;;;;6302048;28;20571;-61
2021/01/09 05:26:09;;;;;;;22.13;15.83;;;-0.80;99.90;;;;;;6301817;28;20461;-61
2021/01/09 05:29:16;;;;;;;20.20;16.00;;;-0.90;99.90;;;;;;6301643;28;20469;-60
2021/01/09 05:32:21;;;;;;;23.47;17.20;;;-1.00;99.90;;;;;;6301662;28;20818;-60
2021/01/09 05:35:24;;;;;;;22.47;18.00;;;-1.10;99.90;;;;;;6301825;28;20488;-60
2021/01/09 05:38:34;;;;;;;24.50;18.30;;;-1.20;99.90;;;;;;6301451;28;20449;-60
2021/01/09 05:41:41;;;;;;;24.93;18.40;;;-1.30;99.90;;;;;;6301308;28;20952;-60
2021/01/09 05:44:44;;;;;;;18.63;16.10;;;-1.30;99.90;;;;;;6301888;28;20422;-61
2021/01/09 05:47:50;;;;;;;21.80;18.07;;;-1.30;99.90;;;;;;6301609;28;20476;-60
2021/01/09 05:50:54;;;;;;;21.80;16.60;;;-1.50;99.90;;;;;;6301014;28;20952;-61
2021/01/09 05:53:57;;;;;;;22.93;18.00;;;-1.50;99.90;;;;;;6301168;28;20778;-61
2021/01/09 05:57:00;;;;;;;22.80;18.40;;;-1.50;99.90;;;;;;6300605;28;20488;-62
2021/01/09 06:00:07;;;;;;;22.40;18.67;;;-1.60;99.90;;;;;;6301048;28;20969;-62
2021/01/09 06:03:18;;;;;;;18.40;16.53;;;-1.50;99.90;;;;;;6295227;28;20557;-62
2021/01/09 06:06:42;;;;;;;18.43;16.43;;;-1.60;99.90;;;;;;6301144;28;20477;-62
2021/01/09 06:09:53;;;;;;;22.07;16.67;;;-1.70;99.90;;;;;;6300881;28;20477;-62
2021/01/09 06:13:00;;;;;;;18.53;15.80;;;-1.80;99.90;;;;;;6300715;28;20961;-62
2021/01/09 06:16:05;;;;;;;19.03;16.30;;;-1.80;99.90;;;;;;6300528;28;20568;-62
2021/01/09 06:19:08;;;;;;;18.87;16.00;;;-1.80;99.90;;;;;;6301805;28;20484;-62
2021/01/09 06:22:12;;;;;;;18.50;15.33;;;-1.80;99.90;;;;;;6299961;28;20485;-62
2021/01/09 06:25:14;;;;;;;17.63;15.67;;;-1.90;99.90;;;;;;6300586;28;20481;-62
2021/01/09 06:28:21;;;;;;;17.47;15.30;;;-2.00;99.90;;;;;;6300380;28;20968;-62
2021/01/09 06:31:26;;;;;;;15.60;14.10;;;-2.00;99.90;;;;;;6300299;28;20473;-62
2021/01/09 06:34:29;;;;;;;21.77;17.80;;;-2.00;99.90;;;;;;6300344;28;20473;-62
2021/01/09 06:37:31;;;;;;;19.63;15.10;;;-2.00;99.90;;;;;;6300317;28;20466;-62
2021/01/09 06:40:34;;;;;;;17.37;14.07;;;-2.00;99.90;;;;;;6299990;28;20466;-63
2021/01/09 06:43:40;;;;;;;20.03;14.53;;;-2.00;99.90;;;;;;6299952;28;20472;-63
2021/01/09 06:46:42;;;;;;;22.23;15.47;;;-2.00;99.90;;;;;;6300196;28;20477;-62
2021/01/09 06:49:45;;;;;;;18.80;15.47;;;-2.00;99.90;;;;;;6300010;28;20513;-63
2021/01/09 06:52:57;;;;;;;16.77;14.63;;;-2.10;99.90;;;;;;6299825;28;20454;-62
2021/01/09 06:56:00;;;;;;;18.20;14.83;;;-2.10;99.90;;;;;;6299701;28;20558;-63
2021/01/09 06:59:07;;;;;;;17.90;15.47;;;-2.10;99.90;;;;;;6299833;28;20473;-62
2021/01/09 07:02:23;;;;;;;18.30;14.63;;;-2.10;99.90;;;;;;6300191;28;20480;-62
2021/01/09 07:05:26;;;;;;;20.17;16.10;;;-2.00;99.90;;;;;;6299619;28;20434;-62
2021/01/09 07:08:30;;;;;;;17.60;14.63;;;-2.00;99.90;;;;;;6300138;28;20433;-62
2021/01/09 07:11:34;;;;;;;15.53;13.30;;;-1.90;99.90;;;;;;6299765;28;20449;-62
2021/01/09 07:14:37;;;;;;;19.60;14.40;;;-2.00;99.90;;;;;;6299529;28;20437;-63
2021/01/09 07:17:43;;;;;;;16.63;14.03;;;-1.90;99.90;;;;;;6299373;28;20473;-63
2021/01/09 07:20:51;;;;;;;16.50;14.40;;;-1.80;99.90;;;;;;6300091;28;20458;-62
2021/01/09 07:23:56;;;;;;;17.20;14.77;;;-1.80;99.90;;;;;;6300897;28;20462;-63
2021/01/09 07:27:00;;;;;;;17.70;15.17;;;-1.80;99.90;;;;;;6299717;28;20465;-63
2021/01/09 07:30:15;;;;;;;14.73;13.23;;;-1.80;99.90;;;;;;6299430;28;20492;-63
2021/01/09 07:33:18;;;;;;;18.83;15.30;;;-1.80;99.90;;;;;;6303262;28;20817;-63
2021/01/09 07:36:26;;;;;;;18.63;14.60;;;-1.70;99.90;;;;;;6304579;28;20799;-63
2021/01/09 07:39:29;;;;;;;17.03;15.30;;;-1.80;99.90;;;;;;6304851;28;20511;-62
2021/01/09 07:42:31;;;;;;;19.93;15.87;;;-1.80;99.90;;;;;;6304029;28;20816;-62
2021/01/09 07:45:34;;;;;;;21.73;17.10;;;-1.80;99.90;;;;;;6304245;28;20546;-62
2021/01/09 07:48:37;;;;;;;18.07;16.27;;;-1.80;99.90;;;;;;6304356;28;20473;-63
2021/01/09 07:51:51;;;;;;;22.00;16.60;;;-1.80;99.90;;;;;;6304157;28;20972;-62
2021/01/09 07:54:55;;;;;;;24.43;17.60;;;-1.80;99.90;;;;;;6304240;28;20465;-63
2021/01/09 07:57:58;;;;;;;24.60;16.87;;;-1.80;99.90;;;;;;6303844;28;20481;-63
2021/01/09 08:01:01;;;;;;;22.37;16.60;;;-1.70;99.90;;;;;;6303986;28;20587;-63
2021/01/09 08:04:05;;;;;;;19.73;16.97;;;-1.70;99.90;;;;;;6304026;28;20489;-63
2021/01/09 08:07:07;;;;;;;23.40;17.33;;;-1.60;99.90;;;;;;6304306;28;20988;-63
2021/01/09 08:10:29;;;;;;;23.80;16.63;;;-1.60;99.90;;;;;;6303787;28;20473;-63
2021/01/09 08:13:31;;;;;;;27.40;19.87;;;-1.60;99.90;;;;;;6303555;28;20465;-63
2021/01/09 08:16:34;;;;;;;21.90;18.50;;;-1.60;99.90;;;;;;6303116;28;20503;-63
2021/01/09 08:19:41;;;;;;;25.53;16.40;;;-1.60;99.90;;;;;;6303369;28;20558;-63
2021/01/09 08:22:52;;;;;;;22.67;16.70;;;-1.50;99.90;;;;;;6302790;28;20828;-63
2021/01/09 08:25:54;;;;;;;21.27;16.47;;;-1.50;99.90;;;;;;6303141;28;20472;-63
2021/01/09 08:28:58;;;;;;;25.63;16.80;;;-1.30;99.90;;;;;;6303138;28;20476;-63
2021/01/09 08:32:02;;;;;;;20.63;16.60;;;-1.40;99.90;;;;;;6303138;28;20470;-63
2021/01/09 08:35:06;;;;;;;20.70;17.80;;;-1.30;99.90;;;;;;6302681;28;20480;-63
2021/01/09 08:38:08;;;;;;;28.17;16.20;;;-1.20;99.90;;;;;;6302697;28;20488;-62
2021/01/09 08:41:12;;;;;;;17.60;15.37;;;-1.10;99.90;;;;;;6303020;28;20473;-63
2021/01/09 08:44:15;;;;;;;23.53;16.10;;;-1.10;99.90;;;;;;6302328;28;20469;-62
2021/01/09 08:47:19;;;;;;;22.83;17.27;;;-1.10;99.90;;;;;;6302875;28;20477;-63
2021/01/09 08:50:21;;;;;;;18.73;14.73;;;-1.10;99.90;;;;;;6303258;28;20801;-62
2021/01/09 08:53:26;;;;;;;24.70;17.70;;;-1.00;99.90;;;;;;6304142;28;20492;-63
2021/01/09 08:56:31;;;;;;;23.70;17.03;;;-0.90;99.90;;;;;;6302987;28;20473;-62
2021/01/09 08:59:34;;;;;;;22.93;16.40;;;-0.90;99.90;;;;;;6302971;28;20490;-63
2021/01/09 09:02:38;;;;;;;22.53;16.97;;;-0.80;99.90;;;;;;6302275;28;20457;-62
2021/01/09 09:05:42;;;;;;;22.93;19.17;;;-0.70;99.90;;;;;;6302649;28;20717;-62
2021/01/09 09:08:48;;;;;;;24.17;18.10;;;-0.60;99.90;;;;;;6302588;28;20485;-63
2021/01/09 09:11:51;;;;;;;21.97;18.40;;;-0.60;99.90;;;;;;6302326;28;20465;-63
2021/01/09 09:14:57;;;;;;;20.90;16.50;;;-0.50;99.90;;;;;;6297352;28;20470;-63
2021/01/09 09:18:01;;;;;;;23.37;16.43;;;-0.30;99.90;;;;;;6302242;28;20465;-63
2021/01/09 09:21:09;;;;;;;19.97;15.57;;;-0.30;99.90;;;;;;6302161;28;20469;-63
2021/01/09 09:24:12;;;;;;;20.37;15.37;;;-0.20;99.90;;;;;;6302771;28;20469;-63
2021/01/09 09:27:22;;;;;;;18.17;13.63;;;-0.20;99.90;;;;;;6301652;28;20472;-63
2021/01/09 09:30:26;;;;;;;19.50;15.07;;;-0.10;99.90;;;;;;6301754;28;20607;-63
2021/01/09 09:33:29;;;;;;;19.47;14.57;;;0.00;99.90;;;;;;6301943;28;20472;-63
2021/01/09 09:36:33;;;;;;;21.93;14.60;;;0.10;99.90;;;;;;6301592;28;20807;-63
2021/01/09 09:39:35;;;;;;;21.77;15.20;;;0.20;99.90;;;;;;6301852;28;20480;-63
2021/01/09 09:42:38;;;;;;;18.00;14.43;;;0.40;99.90;;;;;;6301459;28;20478;-63
2021/01/09 09:45:40;;;;;;;19.27;16.10;;;0.50;99.90;;;;;;6301715;28;20476;-63
2021/01/09 09:48:47;;;;;;;20.37;15.70;;;0.50;99.90;;;;;;6301835;28;20953;-63
2021/01/09 09:51:50;;;;;;;19.87;15.57;;;0.50;99.90;;;;;;6301179;28;20495;-63
2021/01/09 09:55:00;;;;;;;19.63;13.73;;;0.70;99.90;;;;;;6300274;28;20813;-63
2021/01/09 09:58:07;;;;;;;17.57;14.50;;;0.80;99.90;;;;;;6301069;28;20512;-64
2021/01/09 10:01:20;;;;;;;17.63;13.57;;;0.90;99.90;;;;;;6300845;28;20804;-63
2021/01/09 10:04:23;;;;;;;20.17;13.53;;;1.10;99.90;;;;;;6300870;28;20552;-61
2021/01/09 10:07:26;;;;;;;23.73;14.97;;;1.20;99.90;;;;;;6300877;28;20961;-62
2021/01/09 10:10:28;;;;;;;18.77;14.50;;;1.30;99.90;;;;;;6300504;28;20482;-62
2021/01/09 10:13:33;;;;;;;17.40;14.70;;;1.40;99.90;;;;;;6300481;28;20482;-60
2021/01/09 10:16:35;;;;;;;20.83;16.00;;;1.50;99.90;;;;;;6300190;28;20984;-62
2021/01/09 10:19:38;;;;;;;22.37;15.23;;;1.60;99.90;;;;;;6300832;28;20484;-62
2021/01/09 10:22:40;;;;;;;19.17;14.20;;;1.80;99.90;;;;;;6295810;28;20961;-62
2021/01/09 10:25:43;;;;;;;19.70;15.00;;;1.90;99.90;;;;;;6300501;28;20979;-62
2021/01/09 10:28:45;;;;;;;20.23;16.40;;;2.00;99.90;;;;;;6271698;28;20831;-60
2021/01/09 10:31:47;;;;;;;18.43;13.57;;;2.10;99.90;;;;;;6250857;28;20467;-60
2021/01/09 10:34:51;;;;;;;16.97;13.60;;;2.10;99.90;;;;;;6264911;28;20477;-60
2021/01/09 10:37:53;;;;;;;21.50;18.20;;;2.20;99.90;;;;;;6250236;28;20476;-60
2021/01/09 10:40:55;;;;;;;15.27;13.17;;;2.30;99.90;;;;;;6250077;28;20485;-62
2021/01/09 10:43:57;;;;;;;16.77;13.57;;;2.30;99.90;;;;;;6249924;28;20509;-60
2021/01/09 10:46:59;;;;;;;15.37;13.03;;;2.50;99.90;;;;;;6250127;28;20467;-61
2021/01/09 10:50:03;;;;;;;17.20;13.53;;;2.50;99.90;;;;;;6250210;28;20463;-61
2021/01/09 10:53:05;;;;;;;17.20;13.03;;;2.60;99.60;;;;;;6250800;28;20826;-61
2021/01/09 10:56:08;;;;;;;15.80;13.87;;;2.80;99.60;;;;;;6250347;28;20562;-61
2021/01/09 10:59:10;;;;;;;14.33;11.60;;;2.90;99.30;;;;;;6250217;28;20521;-62
2021/01/09 11:02:12;;;;;;;20.63;14.10;;;3.00;98.90;;;;;;6250007;28;20486;-62
2021/01/09 11:05:15;;;;;;;16.60;11.97;;;3.10;98.70;;;;;;6250300;28;20467;-62
2021/01/09 11:08:18;;;;;;;16.50;12.20;;;3.20;98.60;;;;;;6249979;28;20485;-62
2021/01/09 11:11:20;;;;;;;16.03;12.77;;;3.40;98.50;;;;;;6250170;28;20489;-62
2021/01/09 11:14:22;;;;;;;17.47;12.67;;;3.50;98.10;;;;;;6250000;28;20475;-62
2021/01/09 11:17:24;;;;;;;22.30;18.40;;;3.60;98.20;;;;;;6249556;28;20483;-62
2021/01/09 11:20:28;;;;;;;18.47;14.43;;;4.00;98.10;;;;;;6249664;28;20489;-62
2021/01/09 11:23:30;;;;;;;18.27;13.60;;;6.00;97.10;;;;;;6240254;28;20921;-62
2021/01/09 11:26:32;;;;;;;24.57;17.13;;;10.00;91.80;;;;;;6249819;28;20443;-62
2021/01/09 11:29:35;;;;;;;17.60;15.27;;;14.30;67.80;;;;;;6249448;28;20435;-63
2021/01/09 11:32:37;;;;;;;16.30;13.00;;;15.60;52.80;;;;;;6249711;28;20463;-62
2021/01/09 11:35:40;;;;;;;13.63;12.20;;;14.40;50.40;;;;;;6255849;28;20537;-62
2021/01/09 11:38:55;;;;;;;13.27;11.00;;;12.80;52.30;;;;;;6256747;28;20451;-62
2021/01/09 11:41:58;;;;;;;11.63;10.33;;;11.90;56.00;;;;;;6274164;28;20949;-62
2021/01/09 11:45:01;;;;;;;12.13;9.63;;;15.00;53.30;;;;;;6254360;28;20471;-62
2021/01/09 11:48:05;;;;;;;10.90;9.83;;;19.10;44.80;;;;;;6249520;28;20542;-62
2021/01/09 11:51:08;;;;;;;12.00;10.33;;;22.30;38.10;;;;;;6249459;28;20474;-63
2021/01/09 11:54:12;;;;;;;12.30;11.20;;;25.00;31.60;;;;;;6272092;28;20232;-61
2021/01/09 11:57:14;;;;;;;12.80;11.60;;;26.70;27.90;;;;;;6271855;28;20247;-63
2021/01/09 12:00:19;;;;;;;11.43;10.43;;;27.60;26.40;;;;;;6271701;28;20228;-61
2021/01/09 12:03:22;;;;;;;13.83;12.50;;;28.60;24.90;;;;;;6271223;28;20314;-61
2021/01/09 12:06:25;;;;;;;12.77;11.27;;;29.30;24.00;;;;;;6271534;28;20224;-62
2021/01/09 12:09:30;;;;;;;12.50;11.30;;;29.70;23.10;;;;;;6272396;28;20777;-62
2021/01/09 12:12:32;;;;;;;12.07;10.87;;;29.90;22.60;;;;;;6272630;28;20314;-62
2021/01/09 12:15:35;;;;;;;13.23;11.97;;;30.20;22.50;;;;;;6272461;28;20748;-62
2021/01/09 12:18:37;;;;;;;13.23;11.93;;;30.90;22.00;;;;;;6274623;28;20238;-63
2021/01/09 12:21:40;;;;;;;12.97;11.77;;;31.10;21.30;;;;;;6278843;28;20242;-63
2021/01/09 12:24:42;;;;;;;12.07;11.07;;;31.40;21.10;;;;;;6278467;28;20664;-63
2021/01/09 12:27:44;;;;;;;11.60;10.40;;;31.40;20.90;;;;;;6277902;28;20223;-63
2021/01/09 12:30:49;;;;;;;11.77;10.87;;;31.70;20.70;;;;;;6277403;28;20253;-63
2021/01/09 12:33:51;;;;;;;12.00;10.97;;;31.50;20.20;;;;;;6277910;28;20687;-63
2021/01/09 12:36:54;;;;;;;13.40;11.73;;;31.20;19.90;;;;;;6278461;28;20667;-63
2021/01/09 12:39:56;;;;;;;11.43;10.47;;;31.20;20.10;;;;;;6278695;28;20233;-63
2021/01/09 12:42:58;;;;;;;11.63;10.57;;;31.20;20.00;;;;;;6278062;28;20237;-63
2021/01/09 12:46:00;;;;;;;11.23;10.33;;;31.40;19.90;;;;;;6278321;28;20257;-63
2021/01/09 12:49:03;;;;;;;10.87;9.93;;;30.80;19.90;;;;;;6278062;28;20234;-63
2021/01/09 12:52:06;;;;;;;10.93;10.07;;;30.60;19.90;;;;;;6277937;28;20230;-63
2021/01/09 12:55:09;;;;;;;12.47;10.23;;;30.60;20.20;;;;;;6277761;28;20235;-63
2021/01/09 12:58:12;;;;;;;12.87;11.67;;;30.60;20.30;;;;;;6277460;28;20333;-63
2021/01/09 13:01:17;;;;;;;10.60;9.70;;;29.80;20.50;;;;;;6277422;28;20588;-62
2021/01/09 13:04:21;;;;;;;10.80;9.70;;;29.40;20.30;;;;;;6277565;28;20239;-62
2021/01/09 13:07:24;;;;;;;11.53;10.10;;;28.30;20.70;;;;;;6277657;28;20274;-62
2021/01/09 13:10:27;;;;;;;11.17;10.07;;;28.10;21.40;;;;;;6277475;28;20235;-62
2021/01/09 13:13:29;;;;;;;11.60;10.70;;;26.90;22.00;;;;;;6277066;28;20553;-62
2021/01/09 13:16:31;;;;;;;11.17;10.07;;;26.00;22.70;;;;;;6277258;28;20679;-62
2021/01/09 13:19:35;;;;;;;12.20;10.90;;;25.90;23.20;;;;;;6277609;28;20353;-62
2021/01/09 13:22:41;;;;;;;12.53;10.83;;;26.30;23.40;;;;;;6277695;28;20235;-63
2021/01/09 13:25:43;;;;;;;11.90;10.80;;;25.90;23.40;;;;;;6277883;28;20232;-63
2021/01/09 13:28:45;;;;;;;11.93;10.70;;;25.50;23.90;;;;;;6272835;28;20232;-62
2021/01/09 13:31:47;;;;;;;12.50;11.30;;;25.20;24.30;;;;;;6276809;28;20595;-62
2021/01/09 13:34:50;;;;;;;13.00;11.40;;;24.50;24.90;;;;;;6277227;28;20236;-62
2021/01/09 13:37:53;;;;;;;11.67;10.23;;;23.70;25.20;;;;;;6277324;28;20652;-62
2021/01/09 13:40:55;;;;;;;15.73;10.53;;;22.30;26.60;;;;;;6276561;28;20231;-62
2021/01/09 13:43:58;;;;;;;11.80;10.00;;;21.30;27.10;;;;;;6276914;28;20637;-63
2021/01/09 13:47:00;;;;;;;9.67;8.77;;;19.90;27.90;;;;;;6276602;28;20242;-62
2021/01/09 13:50:03;;;;;;;11.20;8.90;;;18.20;29.80;;;;;;6276450;28;20600;-62
2021/01/09 13:53:06;;;;;;;14.17;10.73;;;17.50;30.80;;;;;;6276462;28;20474;-62
2021/01/09 13:56:09;;;;;;;10.83;9.57;;;16.80;31.60;;;;;;6276722;28;20616;-62
2021/01/09 13:59:14;;;;;;;11.03;10.03;;;15.90;32.50;;;;;;6276007;28;20563;-62
2021/01/09 14:02:16;;;;;;;14.37;10.70;;;14.90;34.10;;;;;;6276392;28;21060;-62
2021/01/09 14:05:18;;;;;;;10.70;8.87;;;14.30;35.20;;;;;;6276350;28;20477;-62
2021/01/09 14:08:21;;;;;;;11.87;9.53;;;13.60;36.30;;;;;;6275616;28;20478;-62
2021/01/09 14:11:26;;;;;;;10.50;9.43;;;12.90;37.70;;;;;;6275688;28;20545;-62
2021/01/09 14:14:28;;;;;;;14.10;12.03;;;12.20;39.20;;;;;;6275625;28;20964;-61
2021/01/09 14:17:31;;;;;;;10.80;8.30;;;11.40;41.00;;;;;;6275496;28;20485;-62
2021/01/09 14:20:34;;;;;;;15.93;9.20;;;11.00;42.50;;;;;;6275557;28;20545;-62
2021/01/09 14:23:38;;;;;;;13.10;9.30;;;10.20;44.30;;;;;;6275857;28;20584;-62
2021/01/09 14:26:42;;;;;;;13.70;9.40;;;9.50;46.90;;;;;;6275883;28;20457;-61
2021/01/09 14:30:05;;;;;;;11.20;9.30;;;9.00;48.40;;;;;;6275651;28;20467;-61
2021/01/09 14:33:07;;;;;;;9.60;8.57;;;8.50;50.20;;;;;;6275763;28;20481;-61
2021/01/09 14:36:10;;;;;;;10.17;9.07;;;8.10;51.50;;;;;;6275501;28;20801;-62
2021/01/09 14:39:13;;;;;;;10.90;9.20;;;7.50;53.40;;;;;;6275731;28;20994;-62
2021/01/09 14:42:17;;;;;;;10.00;9.00;;;7.00;55.30;;;;;;6274559;28;20482;-62
2021/01/09 14:45:22;;;;;;;12.73;9.90;;;6.70;57.00;;;;;;6275218;28;20477;-62
2021/01/09 14:48:24;;;;;;;10.43;8.83;;;6.40;59.00;;;;;;6274988;28;20470;-62
2021/01/09 14:51:26;;;;;;;12.30;10.97;;;6.20;61.10;;;;;;6275311;28;20477;-62
2021/01/09 14:54:29;;;;;;;10.30;9.30;;;6.00;63.40;;;;;;6275551;28;20469;-62
2021/01/09 14:57:32;;;;;;;13.13;10.70;;;5.80;65.90;;;;;;6274804;28;20484;-62
2021/01/09 15:00:34;;;;;;;13.97;11.43;;;5.50;68.30;;;;;;6275400;28;20488;-62
2021/01/09 15:03:36;;;;;;;12.57;9.23;;;5.30;70.80;;;;;;6274917;28;20978;-62
2021/01/09 15:06:38;;;;;;;11.77;9.50;;;5.20;72.30;;;;;;6274994;28;20479;-61
2021/01/09 15:09:45;;;;;;;13.20;9.93;;;5.00;74.10;;;;;;6274792;28;20474;-61
2021/01/09 15:12:47;;;;;;;10.50;8.80;;;4.90;75.80;;;;;;6274921;28;20566;-61
2021/01/09 15:15:52;;;;;;;13.70;9.63;;;4.70;77.30;;;;;;6274472;28;20490;-61
2021/01/09 15:19:10;;;;;;;12.67;10.57;;;4.50;80.40;;;;;;6274459;28;20845;-61
2021/01/09 15:22:13;;;;;;;15.70;11.47;;;4.30;82.00;;;;;;6274610;28;20482;-61
2021/01/09 15:25:16;;;;;;;15.73;12.20;;;4.30;83.70;;;;;;6274908;28;20807;-62
2021/01/09 15:28:20;;;;;;;15.70;10.90;;;4.20;85.00;;;;;;6274500;28;20484;-61
2021/01/09 15:31:23;;;;;;;17.50;11.70;;;4.20;86.90;;;;;;6275250;28;20466;-62
2021/01/09 15:34:28;;;;;;;15.77;12.20;;;4.10;89.00;;;;;;6265657;28;20487;-61
2021/01/09 15:37:30;;;;;;;18.40;13.43;;;3.90;90.00;;;;;;6264368;28;20485;-62